sensor_id;sensor_type;location;lat;lon;timestamp;P1;durP1;ratioP1;P2;durP2;ratioP2
75195;SDS011;63773;42.282;22.782;2023-04-28T00:00:42;11.73;;;6.07;;
75195;SDS011;63773;42.282;22.782;2023-04-28T00:03:08;10.05;;;5.47;;
75195;SDS011;63773;42.282;22.782;2023-04-28T00:05:33;10.60;;;5.43;;
75195;SDS011;63773;42.282;22.782;2023-04-28T00:07:59;10.25;;;4.80;;
75195;SDS011;63773;42.282;22.782;2023-04-28T00:10:25;9.57;;;4.53;;
75195;SDS011;63773;42.282;22.782;2023-04-28T00:12:50;10.07;;;4.93;;
75195;SDS011;63773;42.282;22.782;2023-04-28T00:15:16;7.72;;;4.57;;
75195;SDS011;63773;42.282;22.782;2023-04-28T00:17:41;7.63;;;5.05;;
75195;SDS011;63773;42.282;22.782;2023-04-28T00:20:07;8.52;;;4.95;;
75195;SDS011;63773;42.282;22.782;2023-04-28T00:22:33;8.90;;;5.20;;
75195;SDS011;63773;42.282;22.782;2023-04-28T00:24:59;10.32;;;6.13;;
75195;SDS011;63773;42.282;22.782;2023-04-28T00:27:24;14.02;;;5.90;;
75195;SDS011;63773;42.282;22.782;2023-04-28T00:29:50;9.80;;;5.25;;
75195;SDS011;63773;42.282;22.782;2023-04-28T00:32:15;14.00;;;6.32;;
75195;SDS011;63773;42.282;22.782;2023-04-28T00:34:40;9.18;;;5.57;;
75195;SDS011;63773;42.282;22.782;2023-04-28T00:37:06;10.20;;;5.13;;
75195;SDS011;63773;42.282;22.782;2023-04-28T00:39:31;7.75;;;4.57;;
75195;SDS011;63773;42.282;22.782;2023-04-28T00:41:57;7.63;;;4.70;;
75195;SDS011;63773;42.282;22.782;2023-04-28T00:44:22;8.20;;;4.53;;
75195;SDS011;63773;42.282;22.782;2023-04-28T00:46:48;8.75;;;5.15;;
75195;SDS011;63773;42.282;22.782;2023-04-28T00:49:17;9.77;;;5.70;;
75195;SDS011;63773;42.282;22.782;2023-04-28T00:51:42;11.23;;;5.72;;
75195;SDS011;63773;42.282;22.782;2023-04-28T00:54:08;9.85;;;5.68;;
75195;SDS011;63773;42.282;22.782;2023-04-28T00:56:37;9.70;;;4.93;;
75195;SDS011;63773;42.282;22.782;2023-04-28T00:59:02;8.05;;;4.30;;
75195;SDS011;63773;42.282;22.782;2023-04-28T01:01:28;7.85;;;4.53;;
75195;SDS011;63773;42.282;22.782;2023-04-28T01:03:53;11.88;;;4.80;;
75195;SDS011;63773;42.282;22.782;2023-04-28T01:06:19;7.65;;;4.55;;
75195;SDS011;63773;42.282;22.782;2023-04-28T01:08:47;7.32;;;3.90;;
75195;SDS011;63773;42.282;22.782;2023-04-28T01:11:13;9.25;;;4.57;;
75195;SDS011;63773;42.282;22.782;2023-04-28T01:13:39;10.38;;;5.45;;
75195;SDS011;63773;42.282;22.782;2023-04-28T01:16:05;11.18;;;5.57;;
75195;SDS011;63773;42.282;22.782;2023-04-28T01:18:31;24.70;;;8.93;;
75195;SDS011;63773;42.282;22.782;2023-04-28T01:20:57;22.17;;;10.43;;
75195;SDS011;63773;42.282;22.782;2023-04-28T01:23:23;19.73;;;9.75;;
75195;SDS011;63773;42.282;22.782;2023-04-28T01:25:49;15.68;;;7.85;;
75195;SDS011;63773;42.282;22.782;2023-04-28T01:28:14;14.27;;;7.88;;
75195;SDS011;63773;42.282;22.782;2023-04-28T01:30:40;16.40;;;7.95;;
75195;SDS011;63773;42.282;22.782;2023-04-28T01:33:05;13.25;;;6.55;;
75195;SDS011;63773;42.282;22.782;2023-04-28T01:35:31;15.68;;;8.43;;
75195;SDS011;63773;42.282;22.782;2023-04-28T01:37:56;15.00;;;8.15;;
75195;SDS011;63773;42.282;22.782;2023-04-28T01:40:21;18.48;;;8.48;;
75195;SDS011;63773;42.282;22.782;2023-04-28T01:42:47;17.80;;;7.63;;
75195;SDS011;63773;42.282;22.782;2023-04-28T01:45:12;14.57;;;6.95;;
75195;SDS011;63773;42.282;22.782;2023-04-28T01:47:38;12.38;;;6.80;;
75195;SDS011;63773;42.282;22.782;2023-04-28T01:50:04;15.20;;;6.82;;
75195;SDS011;63773;42.282;22.782;2023-04-28T01:52:30;11.77;;;5.75;;
75195;SDS011;63773;42.282;22.782;2023-04-28T01:54:55;11.27;;;4.90;;
75195;SDS011;63773;42.282;22.782;2023-04-28T01:57:21;8.85;;;5.13;;
75195;SDS011;63773;42.282;22.782;2023-04-28T01:59:46;9.38;;;5.07;;
75195;SDS011;63773;42.282;22.782;2023-04-28T02:02:12;9.98;;;5.18;;
75195;SDS011;63773;42.282;22.782;2023-04-28T02:04:38;10.95;;;5.22;;
75195;SDS011;63773;42.282;22.782;2023-04-28T02:07:05;10.18;;;5.55;;
75195;SDS011;63773;42.282;22.782;2023-04-28T02:09:31;8.18;;;5.53;;
75195;SDS011;63773;42.282;22.782;2023-04-28T02:11:57;8.38;;;4.45;;
75195;SDS011;63773;42.282;22.782;2023-04-28T02:14:26;10.27;;;5.38;;
75195;SDS011;63773;42.282;22.782;2023-04-28T02:16:58;7.95;;;5.07;;
75195;SDS011;63773;42.282;22.782;2023-04-28T02:19:23;8.50;;;4.57;;
75195;SDS011;63773;42.282;22.782;2023-04-28T02:21:49;9.85;;;4.63;;
75195;SDS011;63773;42.282;22.782;2023-04-28T02:24:14;9.70;;;5.10;;
75195;SDS011;63773;42.282;22.782;2023-04-28T02:26:40;9.88;;;5.38;;
75195;SDS011;63773;42.282;22.782;2023-04-28T02:29:06;11.88;;;5.68;;
75195;SDS011;63773;42.282;22.782;2023-04-28T02:31:31;14.60;;;6.38;;
75195;SDS011;63773;42.282;22.782;2023-04-28T02:33:57;12.60;;;6.95;;
75195;SDS011;63773;42.282;22.782;2023-04-28T02:36:22;14.60;;;7.32;;
75195;SDS011;63773;42.282;22.782;2023-04-28T02:38:48;14.25;;;6.88;;
75195;SDS011;63773;42.282;22.782;2023-04-28T02:41:13;13.32;;;5.88;;
75195;SDS011;63773;42.282;22.782;2023-04-28T02:43:39;12.63;;;7.07;;
75195;SDS011;63773;42.282;22.782;2023-04-28T02:46:05;13.88;;;7.05;;
75195;SDS011;63773;42.282;22.782;2023-04-28T02:48:30;15.13;;;7.20;;
75195;SDS011;63773;42.282;22.782;2023-04-28T02:50:59;14.68;;;7.45;;
75195;SDS011;63773;42.282;22.782;2023-04-28T02:53:25;17.50;;;8.23;;
75195;SDS011;63773;42.282;22.782;2023-04-28T02:56:11;14.77;;;7.38;;
75195;SDS011;63773;42.282;22.782;2023-04-28T02:58:36;16.90;;;7.35;;
75195;SDS011;63773;42.282;22.782;2023-04-28T03:01:02;12.80;;;6.18;;
75195;SDS011;63773;42.282;22.782;2023-04-28T03:03:27;11.27;;;5.80;;
75195;SDS011;63773;42.282;22.782;2023-04-28T03:05:52;13.40;;;6.07;;
75195;SDS011;63773;42.282;22.782;2023-04-28T03:08:20;11.48;;;5.70;;
75195;SDS011;63773;42.282;22.782;2023-04-28T03:10:46;9.07;;;5.45;;
75195;SDS011;63773;42.282;22.782;2023-04-28T03:13:11;10.27;;;5.97;;
75195;SDS011;63773;42.282;22.782;2023-04-28T03:15:37;11.82;;;5.93;;
75195;SDS011;63773;42.282;22.782;2023-04-28T03:18:02;12.45;;;6.00;;
75195;SDS011;63773;42.282;22.782;2023-04-28T03:20:28;10.52;;;5.60;;
75195;SDS011;63773;42.282;22.782;2023-04-28T03:22:53;13.32;;;6.32;;
75195;SDS011;63773;42.282;22.782;2023-04-28T03:25:19;12.88;;;6.40;;
75195;SDS011;63773;42.282;22.782;2023-04-28T03:27:44;13.25;;;6.93;;
75195;SDS011;63773;42.282;22.782;2023-04-28T03:30:10;18.83;;;7.30;;
75195;SDS011;63773;42.282;22.782;2023-04-28T03:32:38;15.65;;;7.13;;
75195;SDS011;63773;42.282;22.782;2023-04-28T03:35:03;12.85;;;6.70;;
75195;SDS011;63773;42.282;22.782;2023-04-28T03:37:29;12.45;;;6.95;;
75195;SDS011;63773;42.282;22.782;2023-04-28T03:39:54;17.63;;;6.65;;
75195;SDS011;63773;42.282;22.782;2023-04-28T03:42:20;14.27;;;6.80;;
75195;SDS011;63773;42.282;22.782;2023-04-28T03:44:46;16.58;;;6.47;;
75195;SDS011;63773;42.282;22.782;2023-04-28T03:47:11;14.00;;;6.50;;
75195;SDS011;63773;42.282;22.782;2023-04-28T03:49:37;14.15;;;6.82;;
75195;SDS011;63773;42.282;22.782;2023-04-28T03:52:02;16.58;;;7.53;;
75195;SDS011;63773;42.282;22.782;2023-04-28T03:54:28;12.80;;;6.95;;
75195;SDS011;63773;42.282;22.782;2023-04-28T03:56:54;13.80;;;6.43;;
75195;SDS011;63773;42.282;22.782;2023-04-28T03:59:19;16.63;;;7.10;;
75195;SDS011;63773;42.282;22.782;2023-04-28T04:01:45;11.95;;;6.85;;
75195;SDS011;63773;42.282;22.782;2023-04-28T04:04:10;13.70;;;6.22;;
75195;SDS011;63773;42.282;22.782;2023-04-28T04:06:35;15.52;;;6.90;;
75195;SDS011;63773;42.282;22.782;2023-04-28T04:09:01;19.83;;;7.55;;
75195;SDS011;63773;42.282;22.782;2023-04-28T04:11:26;16.25;;;7.07;;
75195;SDS011;63773;42.282;22.782;2023-04-28T04:13:52;16.83;;;7.80;;
75195;SDS011;63773;42.282;22.782;2023-04-28T04:16:17;13.90;;;7.07;;
75195;SDS011;63773;42.282;22.782;2023-04-28T04:18:43;15.65;;;6.80;;
75195;SDS011;63773;42.282;22.782;2023-04-28T04:21:09;12.20;;;6.05;;
75195;SDS011;63773;42.282;22.782;2023-04-28T04:23:34;14.38;;;6.90;;
75195;SDS011;63773;42.282;22.782;2023-04-28T04:26:00;14.88;;;6.85;;
75195;SDS011;63773;42.282;22.782;2023-04-28T04:28:25;15.52;;;6.97;;
75195;SDS011;63773;42.282;22.782;2023-04-28T04:30:51;16.95;;;7.47;;
75195;SDS011;63773;42.282;22.782;2023-04-28T04:33:16;17.58;;;8.00;;
75195;SDS011;63773;42.282;22.782;2023-04-28T04:35:42;17.75;;;8.38;;
75195;SDS011;63773;42.282;22.782;2023-04-28T04:38:07;19.92;;;8.85;;
75195;SDS011;63773;42.282;22.782;2023-04-28T04:40:33;13.25;;;7.47;;
75195;SDS011;63773;42.282;22.782;2023-04-28T04:42:59;15.07;;;7.07;;
75195;SDS011;63773;42.282;22.782;2023-04-28T04:45:25;16.10;;;7.78;;
75195;SDS011;63773;42.282;22.782;2023-04-28T04:47:51;13.85;;;6.88;;
75195;SDS011;63773;42.282;22.782;2023-04-28T04:50:17;12.85;;;6.13;;
75195;SDS011;63773;42.282;22.782;2023-04-28T04:52:42;17.48;;;6.57;;
75195;SDS011;63773;42.282;22.782;2023-04-28T04:55:08;13.02;;;7.00;;
75195;SDS011;63773;42.282;22.782;2023-04-28T04:57:35;15.85;;;7.72;;
75195;SDS011;63773;42.282;22.782;2023-04-28T05:00:01;17.08;;;8.15;;
75195;SDS011;63773;42.282;22.782;2023-04-28T05:02:28;13.93;;;7.43;;
75195;SDS011;63773;42.282;22.782;2023-04-28T05:04:54;11.70;;;7.03;;
75195;SDS011;63773;42.282;22.782;2023-04-28T05:07:19;11.60;;;5.55;;
75195;SDS011;63773;42.282;22.782;2023-04-28T05:09:44;11.40;;;5.45;;
75195;SDS011;63773;42.282;22.782;2023-04-28T05:12:10;12.48;;;5.90;;
75195;SDS011;63773;42.282;22.782;2023-04-28T05:14:36;8.10;;;5.30;;
75195;SDS011;63773;42.282;22.782;2023-04-28T05:17:01;10.27;;;5.32;;
75195;SDS011;63773;42.282;22.782;2023-04-28T05:19:27;10.05;;;5.05;;
75195;SDS011;63773;42.282;22.782;2023-04-28T05:21:52;9.02;;;4.78;;
75195;SDS011;63773;42.282;22.782;2023-04-28T05:24:21;9.52;;;4.47;;
75195;SDS011;63773;42.282;22.782;2023-04-28T05:26:48;8.10;;;5.00;;
75195;SDS011;63773;42.282;22.782;2023-04-28T05:29:15;11.35;;;6.00;;
75195;SDS011;63773;42.282;22.782;2023-04-28T05:31:40;12.88;;;5.45;;
75195;SDS011;63773;42.282;22.782;2023-04-28T05:34:05;10.73;;;5.53;;
75195;SDS011;63773;42.282;22.782;2023-04-28T05:36:31;8.10;;;4.78;;
75195;SDS011;63773;42.282;22.782;2023-04-28T05:38:56;9.88;;;4.80;;
75195;SDS011;63773;42.282;22.782;2023-04-28T05:41:22;11.77;;;4.88;;
75195;SDS011;63773;42.282;22.782;2023-04-28T05:43:47;9.50;;;3.80;;
75195;SDS011;63773;42.282;22.782;2023-04-28T05:46:15;7.65;;;3.90;;
75195;SDS011;63773;42.282;22.782;2023-04-28T05:48:41;9.27;;;4.65;;
75195;SDS011;63773;42.282;22.782;2023-04-28T05:51:06;10.77;;;5.40;;
75195;SDS011;63773;42.282;22.782;2023-04-28T05:53:32;8.35;;;4.43;;
75195;SDS011;63773;42.282;22.782;2023-04-28T05:55:57;8.02;;;4.28;;
75195;SDS011;63773;42.282;22.782;2023-04-28T05:58:23;8.85;;;4.32;;
75195;SDS011;63773;42.282;22.782;2023-04-28T06:00:48;8.23;;;3.92;;
75195;SDS011;63773;42.282;22.782;2023-04-28T06:03:14;7.75;;;4.45;;
75195;SDS011;63773;42.282;22.782;2023-04-28T06:05:42;7.47;;;3.33;;
75195;SDS011;63773;42.282;22.782;2023-04-28T06:08:08;9.80;;;4.00;;
75195;SDS011;63773;42.282;22.782;2023-04-28T06:10:34;9.73;;;4.30;;
75195;SDS011;63773;42.282;22.782;2023-04-28T06:13:00;10.30;;;4.95;;
75195;SDS011;63773;42.282;22.782;2023-04-28T06:15:26;9.68;;;4.47;;
75195;SDS011;63773;42.282;22.782;2023-04-28T06:17:52;7.45;;;4.22;;
75195;SDS011;63773;42.282;22.782;2023-04-28T06:20:18;7.63;;;3.92;;
75195;SDS011;63773;42.282;22.782;2023-04-28T06:22:44;5.68;;;3.60;;
75195;SDS011;63773;42.282;22.782;2023-04-28T06:25:10;4.72;;;3.35;;
75195;SDS011;63773;42.282;22.782;2023-04-28T06:27:35;7.93;;;3.92;;
75195;SDS011;63773;42.282;22.782;2023-04-28T06:30:01;7.93;;;3.67;;
75195;SDS011;63773;42.282;22.782;2023-04-28T06:32:26;6.63;;;3.28;;
75195;SDS011;63773;42.282;22.782;2023-04-28T06:34:52;8.52;;;4.10;;
75195;SDS011;63773;42.282;22.782;2023-04-28T06:37:17;7.38;;;3.50;;
75195;SDS011;63773;42.282;22.782;2023-04-28T06:39:43;6.07;;;2.97;;
75195;SDS011;63773;42.282;22.782;2023-04-28T06:42:08;5.53;;;3.17;;
75195;SDS011;63773;42.282;22.782;2023-04-28T06:44:33;6.13;;;2.65;;
75195;SDS011;63773;42.282;22.782;2023-04-28T06:46:59;7.57;;;2.78;;
75195;SDS011;63773;42.282;22.782;2023-04-28T06:49:24;4.78;;;2.70;;
75195;SDS011;63773;42.282;22.782;2023-04-28T06:51:50;6.97;;;2.33;;
75195;SDS011;63773;42.282;22.782;2023-04-28T06:54:16;3.75;;;2.10;;
75195;SDS011;63773;42.282;22.782;2023-04-28T06:56:42;6.13;;;2.50;;
75195;SDS011;63773;42.282;22.782;2023-04-28T06:59:07;6.18;;;2.55;;
75195;SDS011;63773;42.282;22.782;2023-04-28T07:01:33;6.25;;;2.83;;
75195;SDS011;63773;42.282;22.782;2023-04-28T07:03:58;5.57;;;2.20;;
75195;SDS011;63773;42.282;22.782;2023-04-28T07:06:23;6.15;;;2.15;;
75195;SDS011;63773;42.282;22.782;2023-04-28T07:08:51;6.80;;;2.60;;
75195;SDS011;63773;42.282;22.782;2023-04-28T07:11:17;4.13;;;2.45;;
75195;SDS011;63773;42.282;22.782;2023-04-28T07:13:43;5.75;;;2.03;;
75195;SDS011;63773;42.282;22.782;2023-04-28T07:16:13;4.07;;;2.33;;
75195;SDS011;63773;42.282;22.782;2023-04-28T07:18:38;6.25;;;2.42;;
75195;SDS011;63773;42.282;22.782;2023-04-28T07:21:04;4.70;;;2.28;;
75195;SDS011;63773;42.282;22.782;2023-04-28T07:23:29;3.95;;;2.08;;
75195;SDS011;63773;42.282;22.782;2023-04-28T07:25:56;4.85;;;2.30;;
75195;SDS011;63773;42.282;22.782;2023-04-28T07:28:22;4.95;;;2.25;;
75195;SDS011;63773;42.282;22.782;2023-04-28T07:30:47;5.32;;;2.03;;
75195;SDS011;63773;42.282;22.782;2023-04-28T07:33:13;4.28;;;2.17;;
75195;SDS011;63773;42.282;22.782;2023-04-28T07:35:38;5.05;;;2.28;;
75195;SDS011;63773;42.282;22.782;2023-04-28T07:38:04;3.67;;;2.25;;
75195;SDS011;63773;42.282;22.782;2023-04-28T07:40:29;4.53;;;2.63;;
75195;SDS011;63773;42.282;22.782;2023-04-28T07:42:54;4.05;;;2.08;;
75195;SDS011;63773;42.282;22.782;2023-04-28T07:45:20;3.65;;;1.70;;
75195;SDS011;63773;42.282;22.782;2023-04-28T07:47:45;3.90;;;1.92;;
75195;SDS011;63773;42.282;22.782;2023-04-28T07:50:11;3.85;;;1.95;;
75195;SDS011;63773;42.282;22.782;2023-04-28T07:52:36;5.95;;;2.28;;
75195;SDS011;63773;42.282;22.782;2023-04-28T07:55:02;4.38;;;1.65;;
75195;SDS011;63773;42.282;22.782;2023-04-28T07:57:28;4.80;;;1.63;;
75195;SDS011;63773;42.282;22.782;2023-04-28T07:59:54;3.53;;;1.60;;
75195;SDS011;63773;42.282;22.782;2023-04-28T08:02:19;3.78;;;1.58;;
75195;SDS011;63773;42.282;22.782;2023-04-28T08:04:45;5.28;;;1.63;;
75195;SDS011;63773;42.282;22.782;2023-04-28T08:07:11;4.63;;;2.08;;
75195;SDS011;63773;42.282;22.782;2023-04-28T08:09:37;4.32;;;1.63;;
75195;SDS011;63773;42.282;22.782;2023-04-28T08:12:05;4.10;;;1.80;;
75195;SDS011;63773;42.282;22.782;2023-04-28T08:14:31;4.05;;;1.73;;
75195;SDS011;63773;42.282;22.782;2023-04-28T08:16:56;7.78;;;3.28;;
75195;SDS011;63773;42.282;22.782;2023-04-28T08:19:22;5.20;;;1.55;;
75195;SDS011;63773;42.282;22.782;2023-04-28T08:21:47;4.38;;;1.50;;
75195;SDS011;63773;42.282;22.782;2023-04-28T08:24:13;3.08;;;0.93;;
75195;SDS011;63773;42.282;22.782;2023-04-28T08:26:38;5.05;;;1.25;;
75195;SDS011;63773;42.282;22.782;2023-04-28T08:29:04;2.03;;;1.08;;
75195;SDS011;63773;42.282;22.782;2023-04-28T08:31:30;3.50;;;1.10;;
75195;SDS011;63773;42.282;22.782;2023-04-28T08:33:55;2.28;;;0.90;;
75195;SDS011;63773;42.282;22.782;2023-04-28T08:36:21;4.25;;;1.10;;
75195;SDS011;63773;42.282;22.782;2023-04-28T08:38:49;6.78;;;1.33;;
75195;SDS011;63773;42.282;22.782;2023-04-28T08:41:14;5.05;;;1.42;;
75195;SDS011;63773;42.282;22.782;2023-04-28T08:43:40;4.32;;;1.20;;
75195;SDS011;63773;42.282;22.782;2023-04-28T08:46:07;4.00;;;1.42;;
75195;SDS011;63773;42.282;22.782;2023-04-28T08:48:38;3.75;;;1.90;;
75195;SDS011;63773;42.282;22.782;2023-04-28T08:51:24;3.47;;;1.00;;
75195;SDS011;63773;42.282;22.782;2023-04-28T08:53:56;2.85;;;1.20;;
75195;SDS011;63773;42.282;22.782;2023-04-28T08:56:26;2.75;;;1.45;;
75195;SDS011;63773;42.282;22.782;2023-04-28T08:58:59;2.40;;;0.80;;
75195;SDS011;63773;42.282;22.782;2023-04-28T09:01:28;4.07;;;0.82;;
75195;SDS011;63773;42.282;22.782;2023-04-28T09:03:55;4.47;;;1.65;;
75195;SDS011;63773;42.282;22.782;2023-04-28T09:06:21;4.55;;;1.08;;
75195;SDS011;63773;42.282;22.782;2023-04-28T09:08:47;2.67;;;1.10;;
75195;SDS011;63773;42.282;22.782;2023-04-28T09:11:12;3.13;;;1.23;;
75195;SDS011;63773;42.282;22.782;2023-04-28T09:13:39;2.97;;;0.80;;
75195;SDS011;63773;42.282;22.782;2023-04-28T09:16:05;3.28;;;1.00;;
75195;SDS011;63773;42.282;22.782;2023-04-28T09:18:31;3.20;;;0.90;;
75195;SDS011;63773;42.282;22.782;2023-04-28T09:21:07;2.42;;;0.65;;
75195;SDS011;63773;42.282;22.782;2023-04-28T09:23:34;2.22;;;0.82;;
75195;SDS011;63773;42.282;22.782;2023-04-28T09:26:11;3.17;;;0.90;;
75195;SDS011;63773;42.282;22.782;2023-04-28T09:28:36;2.90;;;0.70;;
75195;SDS011;63773;42.282;22.782;2023-04-28T09:31:02;2.90;;;0.80;;
75195;SDS011;63773;42.282;22.782;2023-04-28T09:33:28;3.17;;;0.90;;
75195;SDS011;63773;42.282;22.782;2023-04-28T09:35:54;5.30;;;1.05;;
75195;SDS011;63773;42.282;22.782;2023-04-28T09:38:20;3.33;;;1.10;;
75195;SDS011;63773;42.282;22.782;2023-04-28T09:40:50;3.55;;;1.00;;
75195;SDS011;63773;42.282;22.782;2023-04-28T09:45:51;3.50;;;1.05;;
75195;SDS011;63773;42.282;22.782;2023-04-28T09:48:25;3.17;;;1.00;;
75195;SDS011;63773;42.282;22.782;2023-04-28T09:50:52;2.75;;;0.98;;
75195;SDS011;63773;42.282;22.782;2023-04-28T09:53:19;6.03;;;1.30;;
75195;SDS011;63773;42.282;22.782;2023-04-28T09:55:47;3.88;;;1.35;;
75195;SDS011;63773;42.282;22.782;2023-04-28T09:58:15;3.00;;;1.00;;
75195;SDS011;63773;42.282;22.782;2023-04-28T10:00:43;2.55;;;0.90;;
75195;SDS011;63773;42.282;22.782;2023-04-28T10:03:09;2.42;;;0.95;;
75195;SDS011;63773;42.282;22.782;2023-04-28T10:05:35;2.25;;;0.82;;
75195;SDS011;63773;42.282;22.782;2023-04-28T10:08:03;3.53;;;1.02;;
75195;SDS011;63773;42.282;22.782;2023-04-28T10:10:29;4.97;;;1.02;;
75195;SDS011;63773;42.282;22.782;2023-04-28T10:12:55;2.40;;;0.80;;
75195;SDS011;63773;42.282;22.782;2023-04-28T10:15:22;3.28;;;1.73;;
75195;SDS011;63773;42.282;22.782;2023-04-28T10:17:48;2.95;;;1.05;;
75195;SDS011;63773;42.282;22.782;2023-04-28T10:20:15;2.55;;;1.25;;
75195;SDS011;63773;42.282;22.782;2023-04-28T10:22:59;3.97;;;1.38;;
75195;SDS011;63773;42.282;22.782;2023-04-28T10:25:43;2.55;;;0.95;;
75195;SDS011;63773;42.282;22.782;2023-04-28T10:28:18;2.95;;;1.02;;
75195;SDS011;63773;42.282;22.782;2023-04-28T10:31:07;2.45;;;1.33;;
75195;SDS011;63773;42.282;22.782;2023-04-28T10:33:36;1.83;;;0.82;;
75195;SDS011;63773;42.282;22.782;2023-04-28T10:36:03;6.00;;;1.42;;
75195;SDS011;63773;42.282;22.782;2023-04-28T10:38:29;2.42;;;0.95;;
75195;SDS011;63773;42.282;22.782;2023-04-28T10:40:55;3.97;;;1.13;;
75195;SDS011;63773;42.282;22.782;2023-04-28T10:58:45;3.67;;;1.17;;
75195;SDS011;63773;42.282;22.782;2023-04-28T11:01:34;2.58;;;0.80;;
75195;SDS011;63773;42.282;22.782;2023-04-28T11:04:07;3.25;;;1.30;;
75195;SDS011;63773;42.282;22.782;2023-04-28T11:14:30;5.30;;;1.00;;
75195;SDS011;63773;42.282;22.782;2023-04-28T11:17:00;3.15;;;1.13;;
75195;SDS011;63773;42.282;22.782;2023-04-28T11:19:36;3.33;;;1.33;;
75195;SDS011;63773;42.282;22.782;2023-04-28T11:22:12;2.65;;;0.98;;
75195;SDS011;63773;42.282;22.782;2023-04-28T11:24:39;2.92;;;1.27;;
75195;SDS011;63773;42.282;22.782;2023-04-28T11:27:05;3.05;;;1.17;;
75195;SDS011;63773;42.282;22.782;2023-04-28T11:31:57;3.50;;;0.93;;
75195;SDS011;63773;42.282;22.782;2023-04-28T11:34:24;3.30;;;1.00;;
75195;SDS011;63773;42.282;22.782;2023-04-28T11:36:49;2.70;;;0.90;;
75195;SDS011;63773;42.282;22.782;2023-04-28T11:39:15;3.63;;;1.17;;
75195;SDS011;63773;42.282;22.782;2023-04-28T11:41:41;3.05;;;1.00;;
75195;SDS011;63773;42.282;22.782;2023-04-28T11:46:47;3.30;;;1.00;;
75195;SDS011;63773;42.282;22.782;2023-04-28T11:49:23;3.60;;;1.13;;
75195;SDS011;63773;42.282;22.782;2023-04-28T11:51:49;3.83;;;1.55;;
75195;SDS011;63773;42.282;22.782;2023-04-28T11:54:22;1.85;;;0.80;;
75195;SDS011;63773;42.282;22.782;2023-04-28T11:56:50;2.83;;;1.13;;
75195;SDS011;63773;42.282;22.782;2023-04-28T11:59:17;3.88;;;0.90;;
75195;SDS011;63773;42.282;22.782;2023-04-28T12:01:51;3.13;;;1.40;;
75195;SDS011;63773;42.282;22.782;2023-04-28T12:04:33;2.65;;;1.08;;
75195;SDS011;63773;42.282;22.782;2023-04-28T12:07:07;4.60;;;1.42;;
75195;SDS011;63773;42.282;22.782;2023-04-28T12:09:40;3.85;;;0.98;;
75195;SDS011;63773;42.282;22.782;2023-04-28T12:12:08;2.17;;;1.10;;
75195;SDS011;63773;42.282;22.782;2023-04-28T12:14:55;4.97;;;1.00;;
75195;SDS011;63773;42.282;22.782;2023-04-28T12:19:53;6.20;;;1.00;;
75195;SDS011;63773;42.282;22.782;2023-04-28T12:22:19;5.25;;;0.90;;
75195;SDS011;63773;42.282;22.782;2023-04-28T12:24:45;3.10;;;0.90;;
75195;SDS011;63773;42.282;22.782;2023-04-28T12:27:19;3.70;;;1.30;;
75195;SDS011;63773;42.282;22.782;2023-04-28T12:29:49;2.33;;;1.00;;
75195;SDS011;63773;42.282;22.782;2023-04-28T12:32:16;3.15;;;0.98;;
75195;SDS011;63773;42.282;22.782;2023-04-28T12:34:44;2.38;;;1.05;;
75195;SDS011;63773;42.282;22.782;2023-04-28T12:37:11;3.13;;;1.15;;
75195;SDS011;63773;42.282;22.782;2023-04-28T12:39:38;2.80;;;1.38;;
75195;SDS011;63773;42.282;22.782;2023-04-28T12:42:04;3.35;;;1.35;;
75195;SDS011;63773;42.282;22.782;2023-04-28T12:44:36;3.67;;;1.15;;
75195;SDS011;63773;42.282;22.782;2023-04-28T12:47:03;5.25;;;1.23;;
75195;SDS011;63773;42.282;22.782;2023-04-28T12:49:30;3.42;;;1.02;;
75195;SDS011;63773;42.282;22.782;2023-04-28T12:51:56;3.60;;;1.27;;
75195;SDS011;63773;42.282;22.782;2023-04-28T12:54:21;3.05;;;1.25;;
75195;SDS011;63773;42.282;22.782;2023-04-28T12:56:47;2.10;;;1.00;;
75195;SDS011;63773;42.282;22.782;2023-04-28T12:59:13;2.83;;;1.52;;
75195;SDS011;63773;42.282;22.782;2023-04-28T13:01:38;3.40;;;1.02;;
75195;SDS011;63773;42.282;22.782;2023-04-28T13:04:04;4.85;;;1.95;;
75195;SDS011;63773;42.282;22.782;2023-04-28T13:06:29;3.08;;;1.13;;
75195;SDS011;63773;42.282;22.782;2023-04-28T13:08:55;4.60;;;1.02;;
75195;SDS011;63773;42.282;22.782;2023-04-28T13:11:21;3.03;;;0.85;;
75195;SDS011;63773;42.282;22.782;2023-04-28T13:13:48;3.38;;;1.20;;
75195;SDS011;63773;42.282;22.782;2023-04-28T13:16:14;5.32;;;1.10;;
75195;SDS011;63773;42.282;22.782;2023-04-28T13:18:39;2.50;;;1.17;;
75195;SDS011;63773;42.282;22.782;2023-04-28T13:21:05;4.15;;;1.02;;
75195;SDS011;63773;42.282;22.782;2023-04-28T13:23:30;3.30;;;1.42;;
75195;SDS011;63773;42.282;22.782;2023-04-28T13:25:56;3.60;;;0.95;;
75195;SDS011;63773;42.282;22.782;2023-04-28T13:28:21;3.22;;;1.05;;
75195;SDS011;63773;42.282;22.782;2023-04-28T13:30:46;3.92;;;0.98;;
75195;SDS011;63773;42.282;22.782;2023-04-28T13:33:12;5.15;;;1.10;;
75195;SDS011;63773;42.282;22.782;2023-04-28T13:35:37;2.85;;;1.33;;
75195;SDS011;63773;42.282;22.782;2023-04-28T13:38:03;2.72;;;0.90;;
75195;SDS011;63773;42.282;22.782;2023-04-28T13:40:29;3.92;;;1.30;;
75195;SDS011;63773;42.282;22.782;2023-04-28T13:42:55;3.78;;;1.20;;
75195;SDS011;63773;42.282;22.782;2023-04-28T13:45:20;2.97;;;1.13;;
75195;SDS011;63773;42.282;22.782;2023-04-28T13:47:46;2.95;;;1.25;;
75195;SDS011;63773;42.282;22.782;2023-04-28T13:50:13;2.75;;;0.80;;
75195;SDS011;63773;42.282;22.782;2023-04-28T13:52:38;2.08;;;0.80;;
75195;SDS011;63773;42.282;22.782;2023-04-28T13:55:04;3.45;;;1.17;;
75195;SDS011;63773;42.282;22.782;2023-04-28T13:57:30;4.35;;;1.20;;
75195;SDS011;63773;42.282;22.782;2023-04-28T13:59:55;2.38;;;0.98;;
75195;SDS011;63773;42.282;22.782;2023-04-28T14:02:21;2.10;;;1.10;;
75195;SDS011;63773;42.282;22.782;2023-04-28T14:04:47;2.38;;;0.93;;
75195;SDS011;63773;42.282;22.782;2023-04-28T14:07:14;3.30;;;1.35;;
75195;SDS011;63773;42.282;22.782;2023-04-28T14:09:40;2.78;;;1.25;;
75195;SDS011;63773;42.282;22.782;2023-04-28T14:12:05;2.55;;;1.20;;
75195;SDS011;63773;42.282;22.782;2023-04-28T14:14:31;3.80;;;1.00;;
75195;SDS011;63773;42.282;22.782;2023-04-28T14:16:57;4.00;;;1.02;;
75195;SDS011;63773;42.282;22.782;2023-04-28T14:19:22;3.45;;;1.13;;
75195;SDS011;63773;42.282;22.782;2023-04-28T14:21:50;4.20;;;0.95;;
75195;SDS011;63773;42.282;22.782;2023-04-28T14:24:17;3.30;;;1.02;;
75195;SDS011;63773;42.282;22.782;2023-04-28T14:26:43;5.20;;;1.02;;
75195;SDS011;63773;42.282;22.782;2023-04-28T14:29:08;2.53;;;1.20;;
75195;SDS011;63773;42.282;22.782;2023-04-28T14:31:33;3.10;;;1.40;;
75195;SDS011;63773;42.282;22.782;2023-04-28T14:33:59;3.13;;;1.00;;
75195;SDS011;63773;42.282;22.782;2023-04-28T14:36:25;3.22;;;1.05;;
75195;SDS011;63773;42.282;22.782;2023-04-28T14:38:51;2.60;;;1.10;;
75195;SDS011;63773;42.282;22.782;2023-04-28T14:41:17;2.05;;;0.88;;
75195;SDS011;63773;42.282;22.782;2023-04-28T14:43:42;2.47;;;0.95;;
75195;SDS011;63773;42.282;22.782;2023-04-28T14:46:09;2.63;;;1.25;;
75195;SDS011;63773;42.282;22.782;2023-04-28T14:48:35;3.63;;;0.90;;
75195;SDS011;63773;42.282;22.782;2023-04-28T14:51:01;2.88;;;1.10;;
75195;SDS011;63773;42.282;22.782;2023-04-28T14:53:26;3.50;;;1.00;;
75195;SDS011;63773;42.282;22.782;2023-04-28T14:55:54;4.00;;;1.00;;
75195;SDS011;63773;42.282;22.782;2023-04-28T14:58:19;6.50;;;1.30;;
75195;SDS011;63773;42.282;22.782;2023-04-28T15:00:45;2.72;;;1.10;;